KLM912 LEIB-EDDH
Flight info
| Callsign | KLM912 |
|---|---|
| Flight time | 2h 34m |
| Altitude | 38000 |
| Route | KABRE DCT ELTAN DCT MHN DCT MEROS DCT LAPIT DCT CHELY DCT LUMAS DCT MAXIR DCT LUSOL DCT BODRU DCT OKTET DCT IRMAR DCT KINES DCT VANAS DCT ESOKO DCT GODRA DCT LOKTA DCT TEDGO DCT HAREM DCT LOHRE DCT MASEK DCT ELNAT P605 NOLGO NOLGO3S |
| Aircraft | B738/M-SDE2E3FGHIRWXY/LB1 |
Departure
| Time | 2026-05-05 03:59 |
|---|---|
| Airport | Ibiza Airport (LEIB) |
Arrival
| Time | 2026-05-05 06:34 |
|---|---|
| Airport | Hamburg Helmut Schmidt Airport (EDDH) |
| Time | Latitude | Longitude | Altitude | Speed | Heading |
|---|---|---|---|---|---|
| 2026-05-05 03:42 | 38.87600 | 1.37353 | 28 ft | 0 kts | 333° |
| 2026-05-05 03:55 | 38.87607 | 1.37348 | 28 ft | 3 kts | 333° |
| 2026-05-05 03:55 | 38.87644 | 1.37333 | 28 ft | 8 kts | 5° |
| 2026-05-05 03:55 | 38.87690 | 1.37394 | 28 ft | 12 kts | 61° |
| 2026-05-05 03:55 | 38.87671 | 1.37495 | 28 ft | 13 kts | 147° |
| 2026-05-05 03:56 | 38.87591 | 1.37566 | 28 ft | 14 kts | 111° |
| 2026-05-05 03:56 | 38.87626 | 1.37686 | 29 ft | 15 kts | 62° |
| 2026-05-05 03:56 | 38.87680 | 1.37813 | 29 ft | 17 kts | 62° |
| 2026-05-05 03:56 | 38.87737 | 1.37954 | 29 ft | 19 kts | 62° |
| 2026-05-05 03:57 | 38.87801 | 1.38106 | 29 ft | 20 kts | 62° |
| 2026-05-05 03:57 | 38.87869 | 1.38270 | 29 ft | 21 kts | 62° |
| 2026-05-05 03:57 | 38.87938 | 1.38438 | 28 ft | 21 kts | 63° |
| 2026-05-05 03:57 | 38.88001 | 1.38591 | 29 ft | 17 kts | 62° |
| 2026-05-05 03:58 | 38.87994 | 1.38712 | 28 ft | 15 kts | 152° |
| 2026-05-05 03:58 | 38.87894 | 1.38704 | 27 ft | 15 kts | 192° |
| 2026-05-05 03:58 | 38.87831 | 1.38636 | 27 ft | 9 kts | 242° |
| 2026-05-05 03:58 | 38.87765 | 1.38472 | 29 ft | 43 kts | 242° |
| 2026-05-05 03:59 | 38.87526 | 1.37900 | 29 ft | 102 kts | 242° |
| 2026-05-05 03:59 | 38.87116 | 1.36907 | 36 ft | 150 kts | 242° |
| 2026-05-05 03:59 | 38.86631 | 1.35710 | 584 ft | 150 kts | 243° |
| 2026-05-05 03:59 | 38.86011 | 1.34550 | 1010 ft | 166 kts | 229° |
| 2026-05-05 04:00 | 38.85169 | 1.33401 | 1384 ft | 186 kts | 226° |
| 2026-05-05 04:00 | 38.84219 | 1.32194 | 1919 ft | 200 kts | 225° |
| 2026-05-05 04:00 | 38.83221 | 1.30875 | 2621 ft | 209 kts | 227° |
| 2026-05-05 04:00 | 38.82211 | 1.29467 | 3375 ft | 220 kts | 227° |
| 2026-05-05 04:01 | 38.81149 | 1.28066 | 4435 ft | 219 kts | 215° |
| 2026-05-05 04:01 | 38.79721 | 1.27302 | 5312 ft | 230 kts | 189° |
| 2026-05-05 04:01 | 38.78021 | 1.27443 | 5733 ft | 263 kts | 168° |
| 2026-05-05 04:01 | 38.76198 | 1.27959 | 6585 ft | 271 kts | 168° |
| 2026-05-05 04:02 | 38.74322 | 1.28452 | 7510 ft | 277 kts | 170° |
| 2026-05-05 04:02 | 38.72411 | 1.28901 | 8491 ft | 282 kts | 171° |
| 2026-05-05 04:02 | 38.70462 | 1.29333 | 9429 ft | 286 kts | 171° |
| 2026-05-05 04:02 | 38.68483 | 1.29773 | 10358 ft | 291 kts | 171° |
| 2026-05-05 04:03 | 38.66477 | 1.30230 | 11256 ft | 294 kts | 171° |
| 2026-05-05 04:03 | 38.64453 | 1.30698 | 12146 ft | 297 kts | 172° |
| 2026-05-05 04:03 | 38.62433 | 1.31166 | 13000 ft | 300 kts | 172° |
| 2026-05-05 04:03 | 38.60448 | 1.32076 | 13834 ft | 309 kts | 152° |
| 2026-05-05 04:04 | 38.58831 | 1.33936 | 14615 ft | 322 kts | 129° |
| 2026-05-05 04:04 | 38.57918 | 1.36639 | 15100 ft | 342 kts | 103° |
| 2026-05-05 04:04 | 38.57483 | 1.39715 | 15517 ft | 361 kts | 100° |
| 2026-05-05 04:04 | 38.57124 | 1.42960 | 15921 ft | 378 kts | 99° |
| 2026-05-05 04:05 | 38.56762 | 1.46331 | 16549 ft | 386 kts | 100° |
| 2026-05-05 04:05 | 38.56351 | 1.49749 | 17249 ft | 392 kts | 101° |
| 2026-05-05 04:05 | 38.55894 | 1.53211 | 17951 ft | 398 kts | 101° |
| 2026-05-05 04:05 | 38.55576 | 1.56745 | 18619 ft | 405 kts | 91° |
| 2026-05-05 04:06 | 38.55854 | 1.60340 | 19310 ft | 411 kts | 78° |
| 2026-05-05 04:06 | 38.56782 | 1.63805 | 19993 ft | 415 kts | 64° |
| 2026-05-05 04:06 | 38.58176 | 1.67056 | 20627 ft | 420 kts | 60° |
| 2026-05-05 04:06 | 38.59637 | 1.70310 | 21250 ft | 424 kts | 59° |
| 2026-05-05 04:07 | 38.61123 | 1.73589 | 21839 ft | 429 kts | 59° |
| 2026-05-05 04:07 | 38.62618 | 1.76918 | 22427 ft | 433 kts | 60° |
| 2026-05-05 04:07 | 38.64109 | 1.80280 | 23028 ft | 437 kts | 60° |
| 2026-05-05 04:07 | 38.65608 | 1.83685 | 23587 ft | 441 kts | 60° |
| 2026-05-05 04:08 | 38.67122 | 1.87118 | 24143 ft | 444 kts | 60° |
| 2026-05-05 04:08 | 38.68630 | 1.90529 | 24661 ft | 448 kts | 60° |
| 2026-05-05 04:08 | 38.70175 | 1.94019 | 25178 ft | 451 kts | 60° |
| 2026-05-05 04:08 | 38.71725 | 1.97524 | 25679 ft | 454 kts | 60° |
| 2026-05-05 04:09 | 38.73285 | 2.01060 | 26176 ft | 457 kts | 60° |
| 2026-05-05 04:09 | 38.74852 | 2.04619 | 26629 ft | 460 kts | 60° |
| 2026-05-05 04:09 | 38.76427 | 2.08201 | 27068 ft | 463 kts | 60° |
| 2026-05-05 04:09 | 38.78011 | 2.11807 | 27501 ft | 465 kts | 60° |
| 2026-05-05 04:10 | 38.79601 | 2.15429 | 27920 ft | 467 kts | 60° |
| 2026-05-05 04:10 | 38.81198 | 2.19069 | 28307 ft | 470 kts | 60° |
| 2026-05-05 04:10 | 38.82802 | 2.22731 | 28686 ft | 472 kts | 60° |
| 2026-05-05 04:10 | 38.84413 | 2.26414 | 29048 ft | 475 kts | 60° |
| 2026-05-05 04:11 | 38.86032 | 2.30120 | 29394 ft | 477 kts | 60° |
| 2026-05-05 04:11 | 38.87658 | 2.33848 | 29729 ft | 479 kts | 60° |
| 2026-05-05 04:11 | 38.89268 | 2.37540 | 30045 ft | 481 kts | 60° |
| 2026-05-05 04:11 | 38.90912 | 2.41317 | 30155 ft | 488 kts | 60° |
| 2026-05-05 04:12 | 38.92570 | 2.45129 | 30484 ft | 489 kts | 60° |
| 2026-05-05 04:12 | 38.94230 | 2.48951 | 30845 ft | 490 kts | 60° |
| 2026-05-05 04:12 | 38.95886 | 2.52769 | 31208 ft | 489 kts | 60° |
| 2026-05-05 04:12 | 38.97541 | 2.56590 | 31592 ft | 489 kts | 60° |
| 2026-05-05 04:13 | 38.99194 | 2.60410 | 31966 ft | 488 kts | 60° |
| 2026-05-05 04:13 | 39.00841 | 2.64222 | 32327 ft | 487 kts | 60° |
| 2026-05-05 04:13 | 39.02487 | 2.68034 | 32699 ft | 487 kts | 60° |
| 2026-05-05 04:13 | 39.04128 | 2.71839 | 33056 ft | 486 kts | 60° |
| 2026-05-05 04:14 | 39.05765 | 2.75642 | 33406 ft | 485 kts | 60° |
| 2026-05-05 04:14 | 39.07400 | 2.79443 | 33755 ft | 485 kts | 60° |
| 2026-05-05 04:14 | 39.09031 | 2.83240 | 34091 ft | 484 kts | 60° |
| 2026-05-05 04:14 | 39.10657 | 2.87029 | 34428 ft | 483 kts | 60° |
| 2026-05-05 04:15 | 39.12279 | 2.90815 | 34755 ft | 483 kts | 60° |
| 2026-05-05 04:15 | 39.13896 | 2.94596 | 35088 ft | 482 kts | 60° |
| 2026-05-05 04:15 | 39.15496 | 2.98389 | 35406 ft | 481 kts | 61° |
| 2026-05-05 04:15 | 39.17011 | 3.02178 | 35715 ft | 481 kts | 63° |
| 2026-05-05 04:16 | 39.18497 | 3.06036 | 36024 ft | 480 kts | 63° |
| 2026-05-05 04:16 | 39.19979 | 3.09887 | 36328 ft | 479 kts | 63° |
| 2026-05-05 04:16 | 39.21486 | 3.13714 | 36589 ft | 479 kts | 62° |
| 2026-05-05 04:16 | 39.23015 | 3.17533 | 36908 ft | 477 kts | 62° |
| 2026-05-05 04:17 | 39.24527 | 3.21313 | 37308 ft | 473 kts | 62° |
| 2026-05-05 04:17 | 39.26019 | 3.25085 | 37655 ft | 470 kts | 62° |
| 2026-05-05 04:17 | 39.27496 | 3.28853 | 37918 ft | 469 kts | 62° |
| 2026-05-05 04:17 | 39.28974 | 3.32630 | 37961 ft | 473 kts | 62° |
| 2026-05-05 04:18 | 39.31955 | 3.40220 | 37980 ft | 473 kts | 62° |
| 2026-05-05 04:18 | 39.34912 | 3.47757 | 37977 ft | 469 kts | 62° |
| 2026-05-05 04:19 | 39.37830 | 3.55233 | 37965 ft | 469 kts | 62° |
| 2026-05-05 04:19 | 39.40768 | 3.62773 | 37979 ft | 469 kts | 62° |
| 2026-05-05 04:20 | 39.43700 | 3.70310 | 37980 ft | 469 kts | 62° |
| 2026-05-05 04:20 | 39.46630 | 3.77867 | 37977 ft | 469 kts | 62° |
| 2026-05-05 04:21 | 39.49553 | 3.85424 | 37960 ft | 469 kts | 63° |
| 2026-05-05 04:21 | 39.52450 | 3.92930 | 37977 ft | 469 kts | 63° |
| 2026-05-05 04:22 | 39.55361 | 4.00494 | 37980 ft | 469 kts | 63° |
| 2026-05-05 04:22 | 39.58268 | 4.08060 | 37978 ft | 469 kts | 61° |
| 2026-05-05 04:23 | 39.60060 | 4.11565 | 37999 ft | 466 kts | 48° |
| 2026-05-05 04:23 | 39.62362 | 4.14493 | 38000 ft | 463 kts | 35° |
| 2026-05-05 04:23 | 39.65074 | 4.16684 | 38003 ft | 458 kts | 21° |
| 2026-05-05 04:23 | 39.68055 | 4.18027 | 38007 ft | 451 kts | 8° |
| 2026-05-05 04:24 | 39.74230 | 4.19290 | 37984 ft | 449 kts | 4° |
| 2026-05-05 04:25 | 39.83505 | 4.21057 | 37980 ft | 450 kts | 5° |
| 2026-05-05 04:25 | 39.89688 | 4.22339 | 37981 ft | 450 kts | 6° |
| 2026-05-05 04:26 | 39.95855 | 4.23852 | 37984 ft | 451 kts | 7° |
| 2026-05-05 04:26 | 40.02030 | 4.25325 | 37978 ft | 450 kts | 6° |
| 2026-05-05 04:27 | 40.08198 | 4.26743 | 37978 ft | 450 kts | 6° |
| 2026-05-05 04:27 | 40.14374 | 4.28206 | 37980 ft | 451 kts | 6° |
| 2026-05-05 04:28 | 40.20509 | 4.29663 | 37978 ft | 451 kts | 6° |
| 2026-05-05 04:28 | 40.26689 | 4.31118 | 37977 ft | 451 kts | 6° |
| 2026-05-05 04:29 | 40.32867 | 4.32582 | 37976 ft | 451 kts | 6° |
| 2026-05-05 04:29 | 40.39061 | 4.34054 | 37977 ft | 452 kts | 6° |
| 2026-05-05 04:30 | 40.45243 | 4.35525 | 37979 ft | 452 kts | 6° |
| 2026-05-05 04:30 | 40.51426 | 4.36997 | 37977 ft | 451 kts | 7° |
| 2026-05-05 04:31 | 40.57603 | 4.38472 | 37979 ft | 452 kts | 7° |
| 2026-05-05 04:31 | 40.62750 | 4.39703 | 37979 ft | 452 kts | 7° |
| 2026-05-05 04:32 | 40.68941 | 4.41186 | 37978 ft | 452 kts | 7° |
| 2026-05-05 04:32 | 40.75134 | 4.42672 | 37970 ft | 452 kts | 7° |
| 2026-05-05 04:33 | 40.81340 | 4.44164 | 37963 ft | 453 kts | 7° |
| 2026-05-05 04:33 | 40.87539 | 4.45658 | 37972 ft | 452 kts | 7° |
| 2026-05-05 04:34 | 40.93737 | 4.47157 | 37966 ft | 453 kts | 7° |
| 2026-05-05 04:34 | 40.99900 | 4.48651 | 37965 ft | 453 kts | 7° |
| 2026-05-05 04:35 | 41.06107 | 4.50160 | 37970 ft | 454 kts | 7° |
| 2026-05-05 04:35 | 41.12309 | 4.51669 | 37970 ft | 453 kts | 7° |
| 2026-05-05 04:36 | 41.18520 | 4.53182 | 37968 ft | 454 kts | 7° |
| 2026-05-05 04:36 | 41.24742 | 4.54702 | 37970 ft | 454 kts | 7° |
| 2026-05-05 04:37 | 41.30958 | 4.56222 | 37964 ft | 454 kts | 7° |
| 2026-05-05 04:37 | 41.37177 | 4.57747 | 37957 ft | 454 kts | 7° |
| 2026-05-05 04:38 | 41.43399 | 4.59275 | 37956 ft | 455 kts | 7° |
| 2026-05-05 04:38 | 41.49573 | 4.60795 | 37962 ft | 454 kts | 7° |
| 2026-05-05 04:39 | 41.55792 | 4.62327 | 37961 ft | 455 kts | 7° |
| 2026-05-05 04:39 | 41.62013 | 4.63864 | 37960 ft | 454 kts | 7° |
| 2026-05-05 04:40 | 41.68233 | 4.65404 | 37961 ft | 455 kts | 7° |
| 2026-05-05 04:40 | 41.74341 | 4.67643 | 37961 ft | 460 kts | 23° |
| 2026-05-05 04:41 | 41.79925 | 4.71909 | 37953 ft | 464 kts | 29° |
| 2026-05-05 04:41 | 41.85447 | 4.76403 | 37949 ft | 464 kts | 29° |
| 2026-05-05 04:42 | 41.90959 | 4.80849 | 37953 ft | 461 kts | 28° |
| 2026-05-05 04:42 | 41.96476 | 4.85280 | 37942 ft | 462 kts | 29° |
| 2026-05-05 04:43 | 42.01981 | 4.89740 | 37939 ft | 462 kts | 29° |
| 2026-05-05 04:43 | 42.07489 | 4.94206 | 37933 ft | 462 kts | 29° |
| 2026-05-05 04:44 | 42.12991 | 4.98671 | 37929 ft | 462 kts | 29° |
| 2026-05-05 04:44 | 42.18490 | 5.03147 | 37930 ft | 461 kts | 30° |
| 2026-05-05 04:45 | 42.23942 | 5.07593 | 37926 ft | 461 kts | 30° |
| 2026-05-05 04:45 | 42.29439 | 5.12082 | 37930 ft | 461 kts | 30° |
| 2026-05-05 04:46 | 42.34931 | 5.16579 | 37928 ft | 461 kts | 30° |
| 2026-05-05 04:46 | 42.40424 | 5.21085 | 37927 ft | 461 kts | 30° |
| 2026-05-05 04:47 | 42.45909 | 5.25594 | 37929 ft | 461 kts | 30° |
| 2026-05-05 04:47 | 42.51397 | 5.30116 | 37928 ft | 461 kts | 30° |
| 2026-05-05 04:48 | 42.56877 | 5.34640 | 37928 ft | 462 kts | 30° |
| 2026-05-05 04:48 | 42.62361 | 5.39177 | 37930 ft | 461 kts | 30° |
| 2026-05-05 04:49 | 42.67793 | 5.43679 | 37929 ft | 460 kts | 30° |
| 2026-05-05 04:49 | 42.73261 | 5.48221 | 37928 ft | 461 kts | 30° |
| 2026-05-05 04:50 | 42.78745 | 5.52786 | 37930 ft | 462 kts | 30° |
| 2026-05-05 04:50 | 42.84226 | 5.57360 | 37928 ft | 461 kts | 30° |
| 2026-05-05 04:51 | 42.89686 | 5.61924 | 37930 ft | 461 kts | 30° |
| 2026-05-05 04:51 | 42.95148 | 5.66499 | 37930 ft | 461 kts | 30° |
| 2026-05-05 04:52 | 43.00614 | 5.71087 | 37928 ft | 461 kts | 30° |
| 2026-05-05 04:52 | 43.06075 | 5.75682 | 37928 ft | 461 kts | 30° |
| 2026-05-05 04:53 | 43.11536 | 5.80286 | 37926 ft | 461 kts | 30° |
| 2026-05-05 04:53 | 43.16962 | 5.84870 | 37936 ft | 461 kts | 31° |
| 2026-05-05 04:54 | 43.22426 | 5.89495 | 37937 ft | 461 kts | 31° |
| 2026-05-05 04:54 | 43.27876 | 5.94120 | 37934 ft | 460 kts | 31° |
| 2026-05-05 04:55 | 43.33329 | 5.98757 | 37937 ft | 461 kts | 31° |
| 2026-05-05 04:55 | 43.38920 | 6.03002 | 37954 ft | 459 kts | 19° |
| 2026-05-05 04:55 | 43.41983 | 6.04176 | 37949 ft | 456 kts | 7° |
| 2026-05-05 04:56 | 43.45120 | 6.04641 | 37955 ft | 454 kts | 2° |
| 2026-05-05 04:56 | 43.51433 | 6.05269 | 37952 ft | 455 kts | 2° |
| 2026-05-05 04:57 | 43.57739 | 6.05874 | 37960 ft | 455 kts | 2° |
| 2026-05-05 04:57 | 43.64069 | 6.06526 | 37940 ft | 456 kts | 2° |
| 2026-05-05 04:58 | 43.70398 | 6.07169 | 37939 ft | 456 kts | 2° |
| 2026-05-05 04:58 | 43.76703 | 6.08161 | 37947 ft | 458 kts | 13° |
| 2026-05-05 04:58 | 43.79681 | 6.09586 | 37953 ft | 459 kts | 24° |
| 2026-05-05 04:59 | 43.82564 | 6.11488 | 37952 ft | 458 kts | 25° |
| 2026-05-05 04:59 | 43.88249 | 6.15390 | 37946 ft | 453 kts | 26° |
| 2026-05-05 05:00 | 43.93896 | 6.19272 | 37941 ft | 453 kts | 25° |
| 2026-05-05 05:00 | 43.99554 | 6.23120 | 37951 ft | 453 kts | 25° |
| 2026-05-05 05:01 | 44.05222 | 6.27006 | 37952 ft | 453 kts | 25° |
| 2026-05-05 05:01 | 44.10877 | 6.30901 | 37963 ft | 454 kts | 25° |
| 2026-05-05 05:02 | 44.16547 | 6.34802 | 37962 ft | 453 kts | 25° |
| 2026-05-05 05:02 | 44.22155 | 6.38668 | 37963 ft | 452 kts | 25° |
| 2026-05-05 05:03 | 44.27808 | 6.42575 | 37974 ft | 454 kts | 25° |
| 2026-05-05 05:03 | 44.33453 | 6.46483 | 37980 ft | 453 kts | 25° |
| 2026-05-05 05:04 | 44.39102 | 6.50406 | 37970 ft | 452 kts | 25° |
| 2026-05-05 05:04 | 44.44728 | 6.54317 | 37981 ft | 452 kts | 25° |
| 2026-05-05 05:05 | 44.50355 | 6.58240 | 37983 ft | 451 kts | 25° |
| 2026-05-05 05:05 | 44.55982 | 6.62172 | 37987 ft | 451 kts | 25° |
| 2026-05-05 05:06 | 44.61598 | 6.66100 | 37986 ft | 451 kts | 25° |
| 2026-05-05 05:06 | 44.67209 | 6.70037 | 37989 ft | 451 kts | 26° |
| 2026-05-05 05:07 | 44.72813 | 6.73977 | 37993 ft | 450 kts | 26° |
| 2026-05-05 05:07 | 44.78458 | 6.77650 | 38006 ft | 448 kts | 16° |
| 2026-05-05 05:07 | 44.81531 | 6.78617 | 38022 ft | 446 kts | 5° |
| 2026-05-05 05:08 | 44.84587 | 6.78758 | 38016 ft | 445 kts | 356° |
| 2026-05-05 05:08 | 44.90770 | 6.78365 | 37993 ft | 444 kts | 355° |
| 2026-05-05 05:09 | 44.96936 | 6.77913 | 37983 ft | 444 kts | 355° |
| 2026-05-05 05:09 | 45.03111 | 6.77523 | 37979 ft | 444 kts | 355° |
| 2026-05-05 05:10 | 45.09284 | 6.77120 | 37990 ft | 444 kts | 355° |
| 2026-05-05 05:10 | 45.15454 | 6.76704 | 38012 ft | 444 kts | 355° |
| 2026-05-05 05:11 | 45.21636 | 6.76295 | 38010 ft | 444 kts | 355° |
| 2026-05-05 05:11 | 45.27803 | 6.75885 | 38015 ft | 443 kts | 355° |
| 2026-05-05 05:12 | 45.33973 | 6.75472 | 38018 ft | 444 kts | 355° |
| 2026-05-05 05:12 | 45.40105 | 6.75062 | 38018 ft | 443 kts | 355° |
| 2026-05-05 05:13 | 45.46240 | 6.75856 | 38019 ft | 448 kts | 16° |
| 2026-05-05 05:13 | 45.49129 | 6.77514 | 38036 ft | 450 kts | 28° |
| 2026-05-05 05:13 | 45.51862 | 6.79712 | 38020 ft | 450 kts | 29° |
| 2026-05-05 05:14 | 45.57261 | 6.84239 | 38022 ft | 449 kts | 30° |
| 2026-05-05 05:14 | 45.62645 | 6.88740 | 38023 ft | 447 kts | 29° |
| 2026-05-05 05:15 | 45.68040 | 6.93205 | 38027 ft | 449 kts | 30° |
| 2026-05-05 05:15 | 45.73426 | 6.97707 | 38030 ft | 448 kts | 30° |
| 2026-05-05 05:16 | 45.78808 | 7.02217 | 38035 ft | 449 kts | 30° |
| 2026-05-05 05:16 | 45.84191 | 7.06729 | 38027 ft | 448 kts | 30° |
| 2026-05-05 05:17 | 45.89532 | 7.11218 | 38024 ft | 447 kts | 30° |
| 2026-05-05 05:17 | 45.94894 | 7.15743 | 38018 ft | 447 kts | 30° |
| 2026-05-05 05:18 | 46.00255 | 7.20280 | 38009 ft | 447 kts | 30° |
| 2026-05-05 05:18 | 46.05612 | 7.24818 | 37988 ft | 446 kts | 30° |
| 2026-05-05 05:19 | 46.10948 | 7.29351 | 37981 ft | 445 kts | 30° |
| 2026-05-05 05:19 | 46.16279 | 7.33890 | 37966 ft | 445 kts | 30° |
| 2026-05-05 05:20 | 46.21608 | 7.38439 | 37958 ft | 445 kts | 30° |
| 2026-05-05 05:20 | 46.26041 | 7.42230 | 37954 ft | 445 kts | 30° |
| 2026-05-05 05:21 | 46.31369 | 7.46795 | 37972 ft | 445 kts | 30° |
| 2026-05-05 05:21 | 46.36701 | 7.51375 | 37971 ft | 446 kts | 30° |
| 2026-05-05 05:22 | 46.42030 | 7.55964 | 37958 ft | 445 kts | 30° |
| 2026-05-05 05:22 | 46.47353 | 7.60556 | 37966 ft | 445 kts | 30° |
| 2026-05-05 05:23 | 46.52670 | 7.65155 | 37962 ft | 445 kts | 31° |
| 2026-05-05 05:23 | 46.57984 | 7.69764 | 37972 ft | 445 kts | 31° |
| 2026-05-05 05:24 | 46.63279 | 7.74445 | 37965 ft | 445 kts | 32° |
| 2026-05-05 05:24 | 46.68488 | 7.79235 | 37965 ft | 445 kts | 32° |
| 2026-05-05 05:25 | 46.73742 | 7.84010 | 37959 ft | 445 kts | 31° |
| 2026-05-05 05:25 | 46.79008 | 7.88782 | 37961 ft | 445 kts | 32° |
| 2026-05-05 05:26 | 46.84255 | 7.93582 | 37954 ft | 445 kts | 32° |
| 2026-05-05 05:26 | 46.89497 | 7.98379 | 37956 ft | 445 kts | 32° |
| 2026-05-05 05:27 | 46.94749 | 8.03190 | 37956 ft | 445 kts | 32° |
| 2026-05-05 05:27 | 47.02608 | 8.10419 | 37946 ft | 444 kts | 32° |
| 2026-05-05 05:28 | 47.07801 | 8.15208 | 37947 ft | 444 kts | 32° |
| 2026-05-05 05:28 | 47.13034 | 8.20047 | 37939 ft | 444 kts | 32° |
| 2026-05-05 05:29 | 47.18265 | 8.24893 | 37935 ft | 444 kts | 32° |
| 2026-05-05 05:29 | 47.23499 | 8.29753 | 38238 ft | 445 kts | 32° |
| 2026-05-05 05:30 | 47.26119 | 8.32192 | 38470 ft | 445 kts | 32° |
| 2026-05-05 05:30 | 47.28734 | 8.34629 | 38692 ft | 445 kts | 32° |
| 2026-05-05 05:30 | 47.31352 | 8.37071 | 38904 ft | 446 kts | 32° |
| 2026-05-05 05:30 | 47.33988 | 8.39532 | 38936 ft | 450 kts | 32° |
| 2026-05-05 05:31 | 47.39288 | 8.44490 | 38943 ft | 449 kts | 32° |
| 2026-05-05 05:31 | 47.44537 | 8.49412 | 38941 ft | 445 kts | 32° |
| 2026-05-05 05:32 | 47.49772 | 8.54334 | 38932 ft | 447 kts | 32° |
| 2026-05-05 05:32 | 47.55020 | 8.59278 | 38937 ft | 447 kts | 33° |
| 2026-05-05 05:33 | 47.60254 | 8.64222 | 38933 ft | 446 kts | 33° |
| 2026-05-05 05:33 | 47.65462 | 8.69153 | 38933 ft | 447 kts | 33° |
| 2026-05-05 05:34 | 47.70696 | 8.74119 | 38927 ft | 447 kts | 33° |
| 2026-05-05 05:34 | 47.75928 | 8.79098 | 38927 ft | 446 kts | 33° |
| 2026-05-05 05:35 | 47.81163 | 8.84091 | 38929 ft | 446 kts | 33° |
| 2026-05-05 05:35 | 47.86392 | 8.89090 | 38916 ft | 447 kts | 33° |
| 2026-05-05 05:36 | 47.91618 | 8.94097 | 38930 ft | 446 kts | 33° |
| 2026-05-05 05:36 | 47.96839 | 8.99113 | 38933 ft | 447 kts | 33° |
| 2026-05-05 05:37 | 48.02059 | 9.04141 | 38934 ft | 446 kts | 33° |
| 2026-05-05 05:37 | 48.07288 | 9.09189 | 38917 ft | 448 kts | 33° |
| 2026-05-05 05:38 | 48.12514 | 9.14248 | 38930 ft | 447 kts | 33° |
| 2026-05-05 05:38 | 48.18100 | 9.18238 | 38942 ft | 446 kts | 13° |
| 2026-05-05 05:39 | 48.24183 | 9.19584 | 38933 ft | 445 kts | 5° |
| 2026-05-05 05:39 | 48.30341 | 9.20574 | 38914 ft | 445 kts | 5° |
| 2026-05-05 05:40 | 48.36499 | 9.21603 | 38907 ft | 445 kts | 5° |
| 2026-05-05 05:40 | 48.42651 | 9.22663 | 38908 ft | 445 kts | 5° |
| 2026-05-05 05:41 | 48.48804 | 9.23702 | 38905 ft | 445 kts | 5° |
| 2026-05-05 05:41 | 48.54956 | 9.24743 | 38907 ft | 445 kts | 5° |
| 2026-05-05 05:42 | 48.61114 | 9.25797 | 38905 ft | 445 kts | 5° |
| 2026-05-05 05:42 | 48.67235 | 9.26777 | 38905 ft | 445 kts | 4° |
| 2026-05-05 05:43 | 48.73395 | 9.27670 | 38906 ft | 445 kts | 4° |
| 2026-05-05 05:43 | 48.79559 | 9.28620 | 38906 ft | 445 kts | 5° |
| 2026-05-05 05:44 | 48.85724 | 9.29578 | 38904 ft | 445 kts | 4° |
| 2026-05-05 05:44 | 48.91883 | 9.30517 | 38907 ft | 445 kts | 4° |
| 2026-05-05 05:45 | 48.98056 | 9.31468 | 38904 ft | 445 kts | 4° |
| 2026-05-05 05:45 | 49.04182 | 9.32418 | 38904 ft | 445 kts | 4° |
| 2026-05-05 05:46 | 49.10347 | 9.33373 | 38907 ft | 445 kts | 4° |
| 2026-05-05 05:46 | 49.16515 | 9.34330 | 38902 ft | 445 kts | 4° |
| 2026-05-05 05:47 | 49.22680 | 9.35290 | 38905 ft | 445 kts | 4° |
| 2026-05-05 05:47 | 49.28809 | 9.36247 | 38906 ft | 445 kts | 4° |
| 2026-05-05 05:48 | 49.34973 | 9.37211 | 38907 ft | 445 kts | 4° |
| 2026-05-05 05:48 | 49.41144 | 9.38181 | 38905 ft | 445 kts | 4° |
| 2026-05-05 05:49 | 49.47307 | 9.39149 | 38897 ft | 445 kts | 4° |
| 2026-05-05 05:49 | 49.53465 | 9.40120 | 38901 ft | 445 kts | 4° |
| 2026-05-05 05:50 | 49.59643 | 9.41097 | 38903 ft | 445 kts | 4° |
| 2026-05-05 05:50 | 49.65764 | 9.42068 | 38903 ft | 444 kts | 4° |
| 2026-05-05 05:51 | 49.71882 | 9.43045 | 38905 ft | 440 kts | 4° |
| 2026-05-05 05:51 | 49.77954 | 9.44014 | 38901 ft | 438 kts | 4° |
| 2026-05-05 05:52 | 49.84020 | 9.44987 | 38904 ft | 438 kts | 4° |
| 2026-05-05 05:52 | 49.90094 | 9.45961 | 38910 ft | 439 kts | 4° |
| 2026-05-05 05:53 | 49.96160 | 9.46936 | 38905 ft | 438 kts | 4° |
| 2026-05-05 05:53 | 50.02229 | 9.47916 | 38901 ft | 439 kts | 4° |
| 2026-05-05 05:54 | 50.08300 | 9.48901 | 38908 ft | 439 kts | 4° |
| 2026-05-05 05:54 | 50.14373 | 9.49915 | 38910 ft | 439 kts | 5° |
| 2026-05-05 05:55 | 50.20450 | 9.50942 | 38901 ft | 439 kts | 5° |
| 2026-05-05 05:55 | 50.26525 | 9.51958 | 38910 ft | 439 kts | 5° |
| 2026-05-05 05:56 | 50.32598 | 9.52978 | 38912 ft | 439 kts | 5° |
| 2026-05-05 05:56 | 50.38668 | 9.54005 | 38921 ft | 439 kts | 5° |
| 2026-05-05 05:57 | 50.44740 | 9.55032 | 38915 ft | 439 kts | 5° |
| 2026-05-05 05:57 | 50.50814 | 9.56060 | 38915 ft | 439 kts | 5° |
| 2026-05-05 05:58 | 50.56886 | 9.57097 | 38910 ft | 439 kts | 5° |
| 2026-05-05 05:58 | 50.62959 | 9.58129 | 38922 ft | 439 kts | 5° |
| 2026-05-05 05:59 | 50.69013 | 9.59163 | 38916 ft | 441 kts | 5° |
| 2026-05-05 05:59 | 50.75097 | 9.60218 | 38925 ft | 440 kts | 5° |
| 2026-05-05 06:00 | 50.81174 | 9.61417 | 38926 ft | 439 kts | 6° |
| 2026-05-05 06:00 | 50.87244 | 9.62623 | 38924 ft | 439 kts | 5° |
| 2026-05-05 06:01 | 50.93310 | 9.63782 | 38922 ft | 440 kts | 5° |
| 2026-05-05 06:01 | 50.99389 | 9.64969 | 38921 ft | 440 kts | 5° |
| 2026-05-05 06:02 | 51.05485 | 9.66165 | 38922 ft | 443 kts | 5° |
| 2026-05-05 06:02 | 51.11607 | 9.67362 | 38927 ft | 443 kts | 5° |
| 2026-05-05 06:03 | 51.17723 | 9.68565 | 38935 ft | 442 kts | 5° |
| 2026-05-05 06:03 | 51.23793 | 9.69712 | 38935 ft | 442 kts | 4° |
| 2026-05-05 06:04 | 51.29922 | 9.70634 | 38938 ft | 442 kts | 3° |
| 2026-05-05 06:04 | 51.36039 | 9.71603 | 38937 ft | 442 kts | 4° |
| 2026-05-05 06:05 | 51.42161 | 9.72632 | 38930 ft | 442 kts | 4° |
| 2026-05-05 06:05 | 51.48277 | 9.73627 | 38935 ft | 442 kts | 4° |
| 2026-05-05 06:06 | 51.54401 | 9.74776 | 38935 ft | 443 kts | 5° |
| 2026-05-05 06:06 | 51.60471 | 9.75976 | 38934 ft | 442 kts | 5° |
| 2026-05-05 06:07 | 51.66587 | 9.77111 | 38939 ft | 442 kts | 4° |
| 2026-05-05 06:07 | 51.72714 | 9.78269 | 38933 ft | 443 kts | 5° |
| 2026-05-05 06:08 | 51.78840 | 9.79448 | 38933 ft | 443 kts | 5° |
| 2026-05-05 06:08 | 51.84963 | 9.80614 | 38935 ft | 443 kts | 4° |
| 2026-05-05 06:09 | 51.90050 | 9.81589 | 38938 ft | 442 kts | 5° |
| 2026-05-05 06:09 | 51.96194 | 9.82781 | 38307 ft | 451 kts | 5° |
| 2026-05-05 06:10 | 51.99306 | 9.83385 | 37595 ft | 449 kts | 4° |
| 2026-05-05 06:10 | 52.02402 | 9.83989 | 36894 ft | 447 kts | 4° |
| 2026-05-05 06:10 | 52.05486 | 9.84590 | 36189 ft | 445 kts | 4° |
| 2026-05-05 06:10 | 52.08560 | 9.85189 | 35445 ft | 445 kts | 4° |
| 2026-05-05 06:11 | 52.11630 | 9.85786 | 34675 ft | 444 kts | 4° |
| 2026-05-05 06:11 | 52.14700 | 9.86386 | 33879 ft | 445 kts | 4° |
| 2026-05-05 06:11 | 52.17774 | 9.86988 | 33057 ft | 444 kts | 4° |
| 2026-05-05 06:11 | 52.20841 | 9.87591 | 32236 ft | 443 kts | 4° |
| 2026-05-05 06:12 | 52.23840 | 9.88183 | 31713 ft | 438 kts | 4° |
| 2026-05-05 06:12 | 52.26810 | 9.89200 | 31188 ft | 436 kts | 12° |
| 2026-05-05 06:12 | 52.29740 | 9.90454 | 30602 ft | 434 kts | 12° |
| 2026-05-05 06:12 | 52.32651 | 9.91724 | 30033 ft | 433 kts | 12° |
| 2026-05-05 06:13 | 52.35556 | 9.93011 | 29450 ft | 431 kts | 12° |
| 2026-05-05 06:13 | 52.38451 | 9.94298 | 28870 ft | 430 kts | 12° |
| 2026-05-05 06:13 | 52.41333 | 9.95573 | 28287 ft | 428 kts | 12° |
| 2026-05-05 06:13 | 52.44208 | 9.96840 | 27694 ft | 427 kts | 12° |
| 2026-05-05 06:14 | 52.47069 | 9.98100 | 27102 ft | 425 kts | 13° |
| 2026-05-05 06:14 | 52.49926 | 9.99363 | 26501 ft | 424 kts | 13° |
| 2026-05-05 06:14 | 52.52766 | 10.00624 | 25898 ft | 422 kts | 13° |
| 2026-05-05 06:14 | 52.55597 | 10.01883 | 25297 ft | 419 kts | 13° |
| 2026-05-05 06:15 | 52.58394 | 10.03129 | 24690 ft | 415 kts | 13° |
| 2026-05-05 06:15 | 52.61167 | 10.04367 | 24080 ft | 410 kts | 13° |
| 2026-05-05 06:15 | 52.63871 | 10.05575 | 23478 ft | 405 kts | 13° |
| 2026-05-05 06:15 | 52.66609 | 10.06801 | 22861 ft | 400 kts | 13° |
| 2026-05-05 06:16 | 52.69250 | 10.07985 | 22266 ft | 396 kts | 13° |
| 2026-05-05 06:16 | 52.71901 | 10.09173 | 21657 ft | 393 kts | 14° |
| 2026-05-05 06:16 | 52.74549 | 10.10179 | 21048 ft | 387 kts | 5° |
| 2026-05-05 06:16 | 52.77209 | 10.10148 | 20461 ft | 380 kts | 349° |
| 2026-05-05 06:17 | 52.79729 | 10.08980 | 19864 ft | 372 kts | 334° |
| 2026-05-05 06:17 | 52.81930 | 10.06824 | 19278 ft | 365 kts | 323° |
| 2026-05-05 06:17 | 52.83997 | 10.04406 | 18662 ft | 361 kts | 322° |
| 2026-05-05 06:17 | 52.86020 | 10.01971 | 18069 ft | 357 kts | 321° |
| 2026-05-05 06:18 | 52.88023 | 9.99553 | 17477 ft | 354 kts | 322° |
| 2026-05-05 06:18 | 52.89984 | 9.97209 | 16901 ft | 350 kts | 322° |
| 2026-05-05 06:18 | 52.91957 | 9.94871 | 16319 ft | 346 kts | 322° |
| 2026-05-05 06:18 | 52.93902 | 9.92570 | 15732 ft | 342 kts | 322° |
| 2026-05-05 06:19 | 52.95821 | 9.90289 | 15149 ft | 337 kts | 322° |
| 2026-05-05 06:19 | 52.97719 | 9.88022 | 14573 ft | 335 kts | 322° |
| 2026-05-05 06:19 | 52.99601 | 9.85772 | 13985 ft | 332 kts | 322° |
| 2026-05-05 06:19 | 53.01470 | 9.83534 | 13410 ft | 329 kts | 322° |
| 2026-05-05 06:20 | 53.03317 | 9.81321 | 12833 ft | 325 kts | 322° |
| 2026-05-05 06:20 | 53.05141 | 9.79136 | 12253 ft | 322 kts | 322° |
| 2026-05-05 06:20 | 53.06951 | 9.76967 | 11670 ft | 319 kts | 322° |
| 2026-05-05 06:20 | 53.08715 | 9.74850 | 11108 ft | 315 kts | 322° |
| 2026-05-05 06:21 | 53.10484 | 9.72722 | 10528 ft | 312 kts | 322° |
| 2026-05-05 06:21 | 53.12225 | 9.70627 | 10202 ft | 301 kts | 322° |
| 2026-05-05 06:21 | 53.13877 | 9.68639 | 10096 ft | 286 kts | 322° |
| 2026-05-05 06:21 | 53.15475 | 9.66712 | 9984 ft | 281 kts | 322° |
| 2026-05-05 06:22 | 53.17053 | 9.64804 | 9758 ft | 282 kts | 322° |
| 2026-05-05 06:22 | 53.18638 | 9.62888 | 9414 ft | 279 kts | 323° |
| 2026-05-05 06:22 | 53.20195 | 9.61006 | 9075 ft | 275 kts | 323° |
| 2026-05-05 06:22 | 53.21732 | 9.59146 | 8750 ft | 272 kts | 323° |
| 2026-05-05 06:23 | 53.23258 | 9.57298 | 8414 ft | 270 kts | 323° |
| 2026-05-05 06:23 | 53.24774 | 9.55461 | 8087 ft | 268 kts | 323° |
| 2026-05-05 06:23 | 53.26265 | 9.53652 | 7771 ft | 261 kts | 323° |
| 2026-05-05 06:23 | 53.27700 | 9.51909 | 7443 ft | 249 kts | 323° |
| 2026-05-05 06:24 | 53.29072 | 9.50240 | 7130 ft | 239 kts | 323° |
| 2026-05-05 06:24 | 53.30397 | 9.48628 | 6825 ft | 230 kts | 323° |
| 2026-05-05 06:24 | 53.31670 | 9.47078 | 6526 ft | 223 kts | 323° |
| 2026-05-05 06:24 | 53.32904 | 9.45590 | 6234 ft | 220 kts | 326° |
| 2026-05-05 06:25 | 53.34346 | 9.44743 | 5919 ft | 219 kts | 354° |
| 2026-05-05 06:25 | 53.35820 | 9.45125 | 5634 ft | 219 kts | 23° |
| 2026-05-05 06:25 | 53.37012 | 9.46646 | 5372 ft | 216 kts | 49° |
| 2026-05-05 06:25 | 53.37994 | 9.48558 | 5125 ft | 216 kts | 50° |
| 2026-05-05 06:26 | 53.38954 | 9.50493 | 4870 ft | 215 kts | 50° |
| 2026-05-05 06:26 | 53.39905 | 9.52412 | 4618 ft | 214 kts | 50° |
| 2026-05-05 06:26 | 53.40853 | 9.54312 | 4372 ft | 211 kts | 50° |
| 2026-05-05 06:26 | 53.41800 | 9.56196 | 4132 ft | 210 kts | 49° |
| 2026-05-05 06:27 | 53.42739 | 9.58065 | 4022 ft | 209 kts | 49° |
| 2026-05-05 06:27 | 53.44597 | 9.61747 | 3995 ft | 199 kts | 49° |
| 2026-05-05 06:27 | 53.45485 | 9.63504 | 3997 ft | 195 kts | 49° |
| 2026-05-05 06:28 | 53.46354 | 9.65235 | 4004 ft | 194 kts | 50° |
| 2026-05-05 06:28 | 53.47213 | 9.66953 | 4002 ft | 191 kts | 50° |
| 2026-05-05 06:28 | 53.48065 | 9.68659 | 3995 ft | 190 kts | 50° |
| 2026-05-05 06:28 | 53.48916 | 9.70365 | 3926 ft | 193 kts | 50° |
| 2026-05-05 06:29 | 53.49773 | 9.72084 | 3689 ft | 189 kts | 50° |
| 2026-05-05 06:29 | 53.50615 | 9.73770 | 3447 ft | 187 kts | 50° |
| 2026-05-05 06:29 | 53.51439 | 9.75426 | 3203 ft | 181 kts | 50° |
| 2026-05-05 06:29 | 53.52235 | 9.77021 | 2958 ft | 174 kts | 50° |
| 2026-05-05 06:30 | 53.52987 | 9.78535 | 2740 ft | 167 kts | 50° |
| 2026-05-05 06:30 | 53.53727 | 9.80022 | 2511 ft | 165 kts | 49° |
| 2026-05-05 06:30 | 53.54443 | 9.81464 | 2312 ft | 159 kts | 50° |
| 2026-05-05 06:30 | 53.55161 | 9.82910 | 2093 ft | 161 kts | 49° |
| 2026-05-05 06:31 | 53.55869 | 9.84332 | 1881 ft | 157 kts | 49° |
| 2026-05-05 06:31 | 53.56556 | 9.85713 | 1676 ft | 150 kts | 49° |
| 2026-05-05 06:31 | 53.57214 | 9.87043 | 1478 ft | 146 kts | 49° |
| 2026-05-05 06:31 | 53.57863 | 9.88349 | 1283 ft | 144 kts | 49° |
| 2026-05-05 06:32 | 53.58501 | 9.89628 | 1086 ft | 142 kts | 49° |
| 2026-05-05 06:32 | 53.59130 | 9.90916 | 915 ft | 145 kts | 50° |
| 2026-05-05 06:32 | 53.59768 | 9.92228 | 748 ft | 144 kts | 50° |
| 2026-05-05 06:32 | 53.60408 | 9.93514 | 559 ft | 146 kts | 49° |
| 2026-05-05 06:33 | 53.61057 | 9.94823 | 363 ft | 146 kts | 49° |
| 2026-05-05 06:33 | 53.61707 | 9.96128 | 172 ft | 145 kts | 49° |
| 2026-05-05 06:33 | 53.62347 | 9.97420 | 43 ft | 139 kts | 49° |
| 2026-05-05 06:33 | 53.62866 | 9.98470 | 43 ft | 90 kts | 50° |
| 2026-05-05 06:34 | 53.63156 | 9.99056 | 46 ft | 40 kts | 50° |
| 2026-05-05 06:34 | 53.63278 | 9.99347 | 46 ft | 26 kts | 72° |
| 2026-05-05 06:34 | 53.63283 | 9.99607 | 47 ft | 20 kts | 98° |
| 2026-05-05 06:34 | 53.63302 | 9.99808 | 45 ft | 18 kts | 53° |
| 2026-05-05 06:35 | 53.63380 | 9.99963 | 48 ft | 17 kts | 49° |
| 2026-05-05 06:35 | 53.63423 | 10.00123 | 48 ft | 15 kts | 108° |
| 2026-05-05 06:35 | 53.63340 | 10.00199 | 48 ft | 14 kts | 174° |
| 2026-05-05 06:35 | 53.63246 | 10.00211 | 48 ft | 13 kts | 176° |
| 2026-05-05 06:36 | 53.63192 | 10.00264 | 48 ft | 7 kts | 97° |
| 2026-05-05 06:36 | 53.63192 | 10.00271 | 48 ft | 0 kts | 92° |
| 2026-05-05 06:36 | 53.63192 | 10.00281 | 48 ft | 2 kts | 90° |
| 2026-05-05 06:36 | 53.63193 | 10.00318 | 48 ft | 5 kts | 86° |
| 2026-05-05 06:37 | 53.63195 | 10.00372 | 48 ft | 0 kts | 86° |
| 2026-05-05 06:40 | 53.63206 | 10.00365 | 48 ft | 0 kts | 86° |